Edt Leda — 5BNH3 — position and weather

sailwx.info

Track history (hours):
 
Tides and Currents Weather Stations Pressure Air Temp Water Temp Dewpoint Dewpoint Depression Visibility Wind Speed Wind Dir Waves Ship Positions

Edt Leda

Last reported at 2018-Jun-20 04:13 UTC. Time now 2018-Jun-20 05:37 UTC.
Position N 32°53' E 034°48'.

Length 35 m; draft 2.4 m.

Type: Ship. MMSI: 210013000.

Date/timePositionNaut miles runAvg speedWind from/ knotsBaromVisibWave heightAir tempDewpointWater temp
2018-Jun-20 04:13N 32°53' E 034°48'517.1
2018-Jun-20 03:56N 32°52' E 034°54'  
2018-Jun-15 13:14N 32°51' E 034°59'417.2
2018-Jun-15 13:00N 32°53' E 034°55'5 0.7
2018-Jun-15 05:16N 32°53' E 034°49'416.7
2018-Jun-15 05:00N 32°52' E 034°54'6 0.4
2018-Jun-14 14:06N 32°51' E 035°00'217.1
2018-Jun-14 14:00N 32°52' E 034°58'817.1
2018-Jun-14 13:30N 32°54' E 034°49'2 0.3
2018-Jun-14 05:36N 32°53' E 034°51'216.5
2018-Jun-14 05:30N 32°53' E 034°53'6 0.4
2018-Jun-13 13:50N 32°51' E 034°60'616.5
2018-Jun-13 13:30N 32°53' E 034°54'3 0.3
2018-Jun-13 04:24N 32°53' E 034°50'716.2
2018-Jun-13 03:59N 32°52' E 034°58'  
2018-Jun-10 10:19N 32°52' E 034°59'617.3
2018-Jun-10 10:00N 32°53' E 034°53'1217.1
2018-Jun-10 09:17N 32°55' E 034°38'1117.0
2018-Jun-10 08:40N 32°56' E 034°26'1617.2
2018-Jun-10 07:44N 32°57' E 034°07'  
Track history (hours):
 
Tides and Currents Weather Stations Pressure Air Temp Water Temp Dewpoint Dewpoint Depression Visibility Wind Speed Wind Dir Waves Ship Positions

Edt Leda

Last reported at 2018-Jun-20 04:13 UTC. Time now 2018-Jun-20 05:37 UTC.
Position N 32°53' E 034°48'.

Length 35 m; draft 2.4 m.

Type: Ship. MMSI: 210013000.

Date/timePositionNaut miles runAvg speedWind from/ knotsBaromVisibWave heightAir tempDewpointWater temp
2018-Jun-20 04:13N 32°53' E 034°48'517.1
2018-Jun-20 03:56N 32°52' E 034°54'  
2018-Jun-15 13:14N 32°51' E 034°59'417.2
2018-Jun-15 13:00N 32°53' E 034°55'5 0.7
2018-Jun-15 05:16N 32°53' E 034°49'416.7
2018-Jun-15 05:00N 32°52' E 034°54'6 0.4
2018-Jun-14 14:06N 32°51' E 035°00'217.1
2018-Jun-14 14:00N 32°52' E 034°58'817.1
2018-Jun-14 13:30N 32°54' E 034°49'2 0.3
2018-Jun-14 05:36N 32°53' E 034°51'216.5
2018-Jun-14 05:30N 32°53' E 034°53'6 0.4
2018-Jun-13 13:50N 32°51' E 034°60'616.5
2018-Jun-13 13:30N 32°53' E 034°54'3 0.3
2018-Jun-13 04:24N 32°53' E 034°50'716.2
2018-Jun-13 03:59N 32°52' E 034°58'  
2018-Jun-10 10:19N 32°52' E 034°59'617.3
2018-Jun-10 10:00N 32°53' E 034°53'1217.1
2018-Jun-10 09:17N 32°55' E 034°38'1117.0
2018-Jun-10 08:40N 32°56' E 034°26'1617.2
2018-Jun-10 07:44N 32°57' E 034°07'  

Dump ship's entire track history